sensor_id;sensor_type;location;lat;lon;timestamp;P1;durP1;ratioP1;P2;durP2;ratioP2
22164;SDS011;11248;52.512;13.520;2023-05-18T15:55:05;4.88;;;1.30;;
22164;SDS011;11248;52.512;13.520;2023-05-18T15:57:33;2.17;;;0.80;;
22164;SDS011;11248;52.512;13.520;2023-05-18T15:59:59;3.00;;;1.05;;
22164;SDS011;11248;52.512;13.520;2023-05-18T16:02:25;2.42;;;0.90;;
22164;SDS011;11248;52.512;13.520;2023-05-18T16:04:52;2.38;;;1.00;;
22164;SDS011;11248;52.512;13.520;2023-05-18T16:07:18;2.63;;;1.13;;
22164;SDS011;11248;52.512;13.520;2023-05-18T16:09:45;2.72;;;1.05;;
22164;SDS011;11248;52.512;13.520;2023-05-18T16:12:12;2.20;;;1.00;;
22164;SDS011;11248;52.512;13.520;2023-05-18T16:14:38;3.35;;;1.40;;
22164;SDS011;11248;52.512;13.520;2023-05-18T16:17:05;3.88;;;1.30;;
22164;SDS011;11248;52.512;13.520;2023-05-18T16:19:32;3.30;;;1.20;;
22164;SDS011;11248;52.512;13.520;2023-05-18T16:21:59;2.33;;;0.93;;
22164;SDS011;11248;52.512;13.520;2023-05-18T16:24:25;6.80;;;2.25;;
22164;SDS011;11248;52.512;13.520;2023-05-18T16:26:52;2.40;;;1.25;;
22164;SDS011;11248;52.512;13.520;2023-05-18T16:29:18;4.13;;;1.50;;
22164;SDS011;11248;52.512;13.520;2023-05-18T16:31:44;2.38;;;1.30;;
22164;SDS011;11248;52.512;13.520;2023-05-18T16:34:10;2.90;;;1.48;;
22164;SDS011;11248;52.512;13.520;2023-05-18T16:36:36;2.50;;;1.48;;
22164;SDS011;11248;52.512;13.520;2023-05-18T16:39:02;2.80;;;1.60;;
22164;SDS011;11248;52.512;13.520;2023-05-18T16:41:28;3.22;;;1.33;;
22164;SDS011;11248;52.512;13.520;2023-05-18T16:43:54;3.13;;;1.52;;
22164;SDS011;11248;52.512;13.520;2023-05-18T16:46:21;2.10;;;1.00;;
22164;SDS011;11248;52.512;13.520;2023-05-18T16:48:48;2.88;;;1.10;;
22164;SDS011;11248;52.512;13.520;2023-05-18T16:51:14;4.32;;;1.25;;
22164;SDS011;11248;52.512;13.520;2023-05-18T16:53:41;1.45;;;0.90;;
22164;SDS011;11248;52.512;13.520;2023-05-18T16:56:07;4.80;;;1.20;;
22164;SDS011;11248;52.512;13.520;2023-05-18T16:58:33;4.85;;;1.27;;
22164;SDS011;11248;52.512;13.520;2023-05-18T17:01:00;2.58;;;1.00;;
22164;SDS011;11248;52.512;13.520;2023-05-18T17:03:26;1.92;;;0.90;;
22164;SDS011;11248;52.512;13.520;2023-05-18T17:05:53;2.97;;;1.10;;
22164;SDS011;11248;52.512;13.520;2023-05-18T17:08:19;1.88;;;1.00;;
22164;SDS011;11248;52.512;13.520;2023-05-18T17:10:45;2.42;;;0.93;;
22164;SDS011;11248;52.512;13.520;2023-05-18T17:13:11;2.30;;;0.90;;
22164;SDS011;11248;52.512;13.520;2023-05-18T17:15:38;5.15;;;1.00;;
22164;SDS011;11248;52.512;13.520;2023-05-18T17:18:04;1.20;;;0.80;;
22164;SDS011;11248;52.512;13.520;2023-05-18T17:20:30;1.45;;;1.08;;
22164;SDS011;11248;52.512;13.520;2023-05-18T17:22:56;1.88;;;1.02;;
22164;SDS011;11248;52.512;13.520;2023-05-18T17:25:23;2.90;;;1.08;;
22164;SDS011;11248;52.512;13.520;2023-05-18T17:27:49;1.52;;;0.85;;
22164;SDS011;11248;52.512;13.520;2023-05-18T17:30:15;2.10;;;0.90;;
22164;SDS011;11248;52.512;13.520;2023-05-18T17:32:41;2.92;;;1.42;;
22164;SDS011;11248;52.512;13.520;2023-05-18T17:35:09;1.85;;;1.10;;
22164;SDS011;11248;52.512;13.520;2023-05-18T17:37:35;2.20;;;0.98;;
22164;SDS011;11248;52.512;13.520;2023-05-18T17:40:02;2.28;;;0.88;;
22164;SDS011;11248;52.512;13.520;2023-05-18T17:42:30;1.73;;;1.00;;
22164;SDS011;11248;52.512;13.520;2023-05-18T17:44:56;2.25;;;1.35;;
22164;SDS011;11248;52.512;13.520;2023-05-18T17:47:23;2.30;;;1.25;;
22164;SDS011;11248;52.512;13.520;2023-05-18T17:49:49;2.38;;;1.52;;
22164;SDS011;11248;52.512;13.520;2023-05-18T17:52:15;3.08;;;1.42;;
22164;SDS011;11248;52.512;13.520;2023-05-18T17:54:41;2.15;;;1.30;;
22164;SDS011;11248;52.512;13.520;2023-05-18T17:57:07;2.10;;;1.25;;
22164;SDS011;11248;52.512;13.520;2023-05-18T17:59:33;1.63;;;1.13;;
22164;SDS011;11248;52.512;13.520;2023-05-18T18:02:00;3.05;;;1.65;;
22164;SDS011;11248;52.512;13.520;2023-05-18T18:04:26;2.80;;;1.35;;
22164;SDS011;11248;52.512;13.520;2023-05-18T18:06:53;4.30;;;1.20;;
22164;SDS011;11248;52.512;13.520;2023-05-18T18:09:19;2.65;;;1.33;;
22164;SDS011;11248;52.512;13.520;2023-05-18T18:11:46;1.90;;;1.30;;
22164;SDS011;11248;52.512;13.520;2023-05-18T18:14:12;1.88;;;1.10;;
22164;SDS011;11248;52.512;13.520;2023-05-18T18:16:41;3.40;;;1.40;;
22164;SDS011;11248;52.512;13.520;2023-05-18T18:19:07;1.35;;;0.98;;
22164;SDS011;11248;52.512;13.520;2023-05-18T18:21:34;2.90;;;1.27;;
22164;SDS011;11248;52.512;13.520;2023-05-18T18:24:00;3.17;;;1.67;;
22164;SDS011;11248;52.512;13.520;2023-05-18T18:26:26;3.75;;;1.73;;
22164;SDS011;11248;52.512;13.520;2023-05-18T18:28:53;3.80;;;2.10;;
22164;SDS011;11248;52.512;13.520;2023-05-18T18:31:20;2.50;;;1.45;;
22164;SDS011;11248;52.512;13.520;2023-05-18T18:33:46;4.85;;;1.77;;
22164;SDS011;11248;52.512;13.520;2023-05-18T18:36:15;2.20;;;1.45;;
22164;SDS011;11248;52.512;13.520;2023-05-18T18:38:41;4.82;;;1.40;;
22164;SDS011;11248;52.512;13.520;2023-05-18T18:41:08;3.50;;;1.50;;
22164;SDS011;11248;52.512;13.520;2023-05-18T18:43:34;3.42;;;1.30;;
22164;SDS011;11248;52.512;13.520;2023-05-18T18:46:03;1.95;;;1.38;;
22164;SDS011;11248;52.512;13.520;2023-05-18T18:48:29;4.28;;;1.73;;
22164;SDS011;11248;52.512;13.520;2023-05-18T18:50:56;2.20;;;1.40;;
22164;SDS011;11248;52.512;13.520;2023-05-18T18:53:22;2.97;;;2.20;;
22164;SDS011;11248;52.512;13.520;2023-05-18T18:55:48;3.85;;;2.05;;
22164;SDS011;11248;52.512;13.520;2023-05-18T18:58:15;3.42;;;1.98;;
22164;SDS011;11248;52.512;13.520;2023-05-18T19:00:41;4.63;;;1.98;;
22164;SDS011;11248;52.512;13.520;2023-05-18T19:03:07;3.35;;;1.65;;
22164;SDS011;11248;52.512;13.520;2023-05-18T19:05:34;2.63;;;1.60;;
22164;SDS011;11248;52.512;13.520;2023-05-18T19:08:00;4.05;;;1.55;;
22164;SDS011;11248;52.512;13.520;2023-05-18T19:10:26;2.08;;;1.38;;
22164;SDS011;11248;52.512;13.520;2023-05-18T19:12:52;2.60;;;1.48;;
22164;SDS011;11248;52.512;13.520;2023-05-18T19:15:18;1.48;;;1.20;;
22164;SDS011;11248;52.512;13.520;2023-05-18T19:17:48;1.65;;;1.20;;
22164;SDS011;11248;52.512;13.520;2023-05-18T19:20:18;2.90;;;1.80;;
22164;SDS011;11248;52.512;13.520;2023-05-18T19:22:44;3.13;;;1.95;;
22164;SDS011;11248;52.512;13.520;2023-05-18T19:25:11;4.82;;;2.33;;
22164;SDS011;11248;52.512;13.520;2023-05-18T19:27:38;3.65;;;1.80;;
22164;SDS011;11248;52.512;13.520;2023-05-18T19:30:04;3.67;;;1.92;;
22164;SDS011;11248;52.512;13.520;2023-05-18T19:32:31;4.60;;;1.90;;
22164;SDS011;11248;52.512;13.520;2023-05-18T19:34:57;3.63;;;1.70;;
22164;SDS011;11248;52.512;13.520;2023-05-18T19:37:23;2.70;;;1.70;;
22164;SDS011;11248;52.512;13.520;2023-05-18T19:42:53;2.80;;;2.00;;
22164;SDS011;11248;52.512;13.520;2023-05-18T19:45:20;4.97;;;2.20;;
22164;SDS011;11248;52.512;13.520;2023-05-18T19:47:46;6.05;;;3.92;;
22164;SDS011;11248;52.512;13.520;2023-05-18T19:50:12;6.15;;;3.72;;
22164;SDS011;11248;52.512;13.520;2023-05-18T19:52:38;5.65;;;3.58;;
22164;SDS011;11248;52.512;13.520;2023-05-18T19:55:05;5.40;;;3.00;;
22164;SDS011;11248;52.512;13.520;2023-05-18T19:57:31;6.28;;;2.10;;
22164;SDS011;11248;52.512;13.520;2023-05-18T19:59:57;5.45;;;2.17;;
22164;SDS011;11248;52.512;13.520;2023-05-18T20:02:23;7.03;;;1.95;;
22164;SDS011;11248;52.512;13.520;2023-05-18T20:04:50;7.80;;;1.95;;
22164;SDS011;11248;52.512;13.520;2023-05-18T20:07:17;5.50;;;1.90;;
22164;SDS011;11248;52.512;13.520;2023-05-18T20:09:44;5.07;;;1.77;;
22164;SDS011;11248;52.512;13.520;2023-05-18T20:12:11;7.20;;;1.50;;
22164;SDS011;11248;52.512;13.520;2023-05-18T20:14:37;7.60;;;1.95;;
22164;SDS011;11248;52.512;13.520;2023-05-18T20:17:03;6.97;;;1.88;;
22164;SDS011;11248;52.512;13.520;2023-05-18T20:19:30;8.15;;;2.30;;
22164;SDS011;11248;52.512;13.520;2023-05-18T20:21:56;6.32;;;1.77;;
22164;SDS011;11248;52.512;13.520;2023-05-18T20:24:23;6.80;;;1.70;;
22164;SDS011;11248;52.512;13.520;2023-05-18T20:26:49;5.85;;;1.90;;
22164;SDS011;11248;52.512;13.520;2023-05-18T20:29:16;8.05;;;2.35;;
22164;SDS011;11248;52.512;13.520;2023-05-18T20:31:43;4.82;;;1.98;;
22164;SDS011;11248;52.512;13.520;2023-05-18T20:34:09;6.00;;;1.95;;
22164;SDS011;11248;52.512;13.520;2023-05-18T20:36:35;9.90;;;1.90;;
22164;SDS011;11248;52.512;13.520;2023-05-18T20:39:01;4.50;;;1.65;;
22164;SDS011;11248;52.512;13.520;2023-05-18T20:41:27;11.75;;;2.47;;
22164;SDS011;11248;52.512;13.520;2023-05-18T20:43:54;10.05;;;2.13;;
22164;SDS011;11248;52.512;13.520;2023-05-18T20:46:20;7.28;;;2.00;;
22164;SDS011;11248;52.512;13.520;2023-05-18T20:48:48;10.80;;;2.05;;
22164;SDS011;11248;52.512;13.520;2023-05-18T20:51:17;8.15;;;2.20;;
22164;SDS011;11248;52.512;13.520;2023-05-18T20:53:43;7.50;;;2.28;;
22164;SDS011;11248;52.512;13.520;2023-05-18T20:56:09;4.28;;;2.00;;
22164;SDS011;11248;52.512;13.520;2023-05-18T20:58:36;4.82;;;2.00;;
22164;SDS011;11248;52.512;13.520;2023-05-18T21:01:12;6.75;;;2.22;;
22164;SDS011;11248;52.512;13.520;2023-05-18T21:03:38;7.15;;;2.00;;
22164;SDS011;11248;52.512;13.520;2023-05-18T21:06:06;7.05;;;2.25;;
22164;SDS011;11248;52.512;13.520;2023-05-18T21:08:32;8.05;;;2.15;;
22164;SDS011;11248;52.512;13.520;2023-05-18T21:10:59;6.28;;;1.92;;
22164;SDS011;11248;52.512;13.520;2023-05-18T21:13:25;5.07;;;1.85;;
22164;SDS011;11248;52.512;13.520;2023-05-18T21:15:51;10.57;;;2.47;;
22164;SDS011;11248;52.512;13.520;2023-05-18T21:18:18;4.45;;;1.85;;
22164;SDS011;11248;52.512;13.520;2023-05-18T21:20:44;5.38;;;1.92;;
22164;SDS011;11248;52.512;13.520;2023-05-18T21:23:10;4.05;;;2.00;;
22164;SDS011;11248;52.512;13.520;2023-05-18T21:25:36;10.15;;;2.70;;
22164;SDS011;11248;52.512;13.520;2023-05-18T21:28:03;6.38;;;2.30;;
22164;SDS011;11248;52.512;13.520;2023-05-18T21:30:29;9.40;;;2.78;;
22164;SDS011;11248;52.512;13.520;2023-05-18T21:32:56;5.88;;;2.50;;
22164;SDS011;11248;52.512;13.520;2023-05-18T21:35:22;3.60;;;2.10;;
22164;SDS011;11248;52.512;13.520;2023-05-18T21:37:48;4.22;;;2.03;;
22164;SDS011;11248;52.512;13.520;2023-05-18T21:40:14;4.60;;;2.22;;
22164;SDS011;11248;52.512;13.520;2023-05-18T21:42:40;11.63;;;2.15;;
22164;SDS011;11248;52.512;13.520;2023-05-18T21:45:10;3.97;;;1.80;;
22164;SDS011;11248;52.512;13.520;2023-05-18T21:47:36;2.55;;;1.40;;
22164;SDS011;11248;52.512;13.520;2023-05-18T21:50:02;5.40;;;2.20;;
22164;SDS011;11248;52.512;13.520;2023-05-18T21:52:29;7.35;;;1.92;;
22164;SDS011;11248;52.512;13.520;2023-05-18T21:54:55;6.20;;;1.85;;
22164;SDS011;11248;52.512;13.520;2023-05-18T21:57:21;4.47;;;2.00;;
22164;SDS011;11248;52.512;13.520;2023-05-18T22:02:52;5.90;;;2.15;;
22164;SDS011;11248;52.512;13.520;2023-05-18T22:05:18;5.78;;;2.40;;
22164;SDS011;11248;52.512;13.520;2023-05-18T22:07:44;6.22;;;2.00;;
22164;SDS011;11248;52.512;13.520;2023-05-18T22:10:10;4.47;;;1.70;;
22164;SDS011;11248;52.512;13.520;2023-05-18T22:12:37;4.90;;;2.38;;
22164;SDS011;11248;52.512;13.520;2023-05-18T22:15:05;5.78;;;2.10;;
22164;SDS011;11248;52.512;13.520;2023-05-18T22:17:34;6.10;;;2.05;;
22164;SDS011;11248;52.512;13.520;2023-05-18T22:20:01;3.53;;;1.50;;
22164;SDS011;11248;52.512;13.520;2023-05-18T22:22:27;2.97;;;1.73;;
22164;SDS011;11248;52.512;13.520;2023-05-18T22:24:53;6.45;;;2.03;;
22164;SDS011;11248;52.512;13.520;2023-05-18T22:27:20;3.80;;;1.95;;
22164;SDS011;11248;52.512;13.520;2023-05-18T22:29:46;4.93;;;1.80;;
22164;SDS011;11248;52.512;13.520;2023-05-18T22:32:12;5.78;;;1.75;;
22164;SDS011;11248;52.512;13.520;2023-05-18T22:34:39;4.80;;;1.85;;
22164;SDS011;11248;52.512;13.520;2023-05-18T22:40:09;8.32;;;2.55;;
22164;SDS011;11248;52.512;13.520;2023-05-18T22:42:36;4.85;;;2.10;;
22164;SDS011;11248;52.512;13.520;2023-05-18T22:45:02;5.93;;;2.70;;
22164;SDS011;11248;52.512;13.520;2023-05-18T22:47:28;5.43;;;2.60;;
22164;SDS011;11248;52.512;13.520;2023-05-18T22:49:55;5.15;;;3.05;;
22164;SDS011;11248;52.512;13.520;2023-05-18T22:52:21;5.10;;;2.00;;
22164;SDS011;11248;52.512;13.520;2023-05-18T22:54:48;2.80;;;1.80;;
22164;SDS011;11248;52.512;13.520;2023-05-18T22:57:14;4.05;;;1.80;;
22164;SDS011;11248;52.512;13.520;2023-05-18T22:59:41;5.60;;;2.13;;
22164;SDS011;11248;52.512;13.520;2023-05-18T23:02:07;6.82;;;2.42;;
22164;SDS011;11248;52.512;13.520;2023-05-18T23:04:33;5.30;;;1.90;;
22164;SDS011;11248;52.512;13.520;2023-05-18T23:06:59;5.50;;;1.48;;
22164;SDS011;11248;52.512;13.520;2023-05-18T23:09:27;5.78;;;1.90;;
22164;SDS011;11248;52.512;13.520;2023-05-18T23:11:54;3.72;;;1.80;;
22164;SDS011;11248;52.512;13.520;2023-05-18T23:14:21;4.82;;;1.80;;
22164;SDS011;11248;52.512;13.520;2023-05-18T23:16:48;3.80;;;1.70;;
22164;SDS011;11248;52.512;13.520;2023-05-18T23:22:18;4.28;;;2.38;;
22164;SDS011;11248;52.512;13.520;2023-05-18T23:24:44;3.35;;;2.30;;
22164;SDS011;11248;52.512;13.520;2023-05-18T23:27:11;3.08;;;1.90;;
22164;SDS011;11248;52.512;13.520;2023-05-18T23:32:40;3.05;;;1.75;;
22164;SDS011;11248;52.512;13.520;2023-05-18T23:35:07;4.68;;;1.95;;
22164;SDS011;11248;52.512;13.520;2023-05-18T23:37:33;5.03;;;1.80;;
22164;SDS011;11248;52.512;13.520;2023-05-18T23:40:01;3.47;;;1.70;;
22164;SDS011;11248;52.512;13.520;2023-05-18T23:42:27;3.20;;;1.70;;
22164;SDS011;11248;52.512;13.520;2023-05-18T23:44:54;4.05;;;1.90;;
22164;SDS011;11248;52.512;13.520;2023-05-18T23:47:20;6.22;;;2.55;;
22164;SDS011;11248;52.512;13.520;2023-05-18T23:49:46;7.65;;;2.30;;
22164;SDS011;11248;52.512;13.520;2023-05-18T23:52:12;5.75;;;2.25;;
22164;SDS011;11248;52.512;13.520;2023-05-18T23:54:39;4.72;;;1.85;;
22164;SDS011;11248;52.512;13.520;2023-05-18T23:57:05;3.78;;;1.58;;
22164;SDS011;11248;52.512;13.520;2023-05-18T23:59:32;3.20;;;1.80;;
